Time;durP1;ratioP1;P1;durP2;ratioP2;P2;SDS_P1;SDS_P2;PMS_P1;PMS_P2;Temp;Humidity;BMP_temperature;BMP_pressure;BME280_temperature;BME280_humidity;BME280_pressure;Samples;Min_cycle;Max_cycle;Signal;HPM_P1;HPM_P2
2021/01/18 00:02:40;;;;;;;16.20;9.77;;;1.20;96.50;;;;;;6372540;27;20030;-76
2021/01/18 00:05:41;;;;;;;15.85;10.25;;;0.90;96.30;;;;;;6372727;28;20047;-76
2021/01/18 00:08:42;;;;;;;15.45;10.57;;;2.30;96.80;;;;;;6372615;27;20024;-77
2021/01/18 00:11:46;;;;;;;16.77;11.27;;;1.20;99.90;;;;;;6372452;28;20042;-77
2021/01/18 00:14:46;;;;;;;19.05;10.32;;;1.00;96.30;;;;;;6372810;27;20464;-77
2021/01/18 00:17:47;;;;;;;16.80;10.95;;;1.00;96.40;;;;;;6372499;27;20019;-75
2021/01/18 00:20:48;;;;;;;19.35;11.52;;;2.60;96.80;;;;;;6372578;28;20038;-75
2021/01/18 00:23:49;;;;;;;15.15;11.30;;;1.70;96.70;;;;;;6372426;27;20015;-76
2021/01/18 00:26:50;;;;;;;14.18;10.63;;;;;;;;;;6372343;28;20035;-75
2021/01/18 00:29:51;;;;;;;13.50;10.02;;;1.00;99.90;;;;;;6372507;28;20445;-76
2021/01/18 00:32:51;;;;;;;17.20;10.15;;;1.00;96.80;;;;;;6372430;28;20023;-75
2021/01/18 00:35:52;;;;;;;16.70;10.48;;;1.70;96.90;;;;;;6372641;28;20045;-75
2021/01/18 00:38:53;;;;;;;13.32;8.93;;;1.40;96.80;;;;;;6372345;27;20030;-76
2021/01/18 00:41:53;;;;;;;17.30;9.52;;;1.00;96.50;;;;;;6372362;27;20027;-77
2021/01/18 00:44:54;;;;;;;12.98;8.55;;;1.10;96.80;;;;;;6372349;27;20019;-76
2021/01/18 00:47:55;;;;;;;11.60;8.60;;;1.70;96.90;;;;;;6372457;27;20468;-76
2021/01/18 00:50:56;;;;;;;17.10;10.32;;;1.60;96.60;;;;;;6372175;28;20041;-76
2021/01/18 00:53:56;;;;;;;15.05;9.15;;;2.70;97.10;;;;;;6372042;27;20441;-75
2021/01/18 00:56:57;;;;;;;12.38;8.75;;;2.20;96.90;;;;;;6372233;28;20073;-76
2021/01/18 00:59:57;;;;;;;14.43;8.38;;;2.50;97.10;;;;;;6372010;28;20027;-76
2021/01/18 01:02:58;;;;;;;14.77;10.25;;;1.30;99.90;;;;;;6372310;28;20015;-76
2021/01/18 01:05:59;;;;;;;13.77;9.05;;;3.00;97.00;;;;;;6372274;27;20385;-76
2021/01/18 01:09:00;;;;;;;14.05;8.77;;;2.10;96.90;;;;;;6371924;27;20034;-77
2021/01/18 01:12:00;;;;;;;14.82;8.38;;;1.80;96.50;;;;;;6371795;27;20035;-76
2021/01/18 01:15:01;;;;;;;13.93;8.88;;;1.20;96.50;;;;;;6376406;27;20095;-77
2021/01/18 01:18:05;;;;;;;13.27;8.85;;;1.20;99.90;;;;;;6376579;27;20027;-76
2021/01/18 01:21:05;;;;;;;12.70;8.32;;;2.90;99.90;;;;;;6376613;27;20054;-77
2021/01/18 01:24:06;;;;;;;16.38;9.20;;;1.20;96.40;;;;;;6376293;27;20023;-76
2021/01/18 01:27:07;;;;;;;17.15;9.77;;;1.20;96.30;;;;;;6376136;27;20023;-77
2021/01/18 01:30:09;;;;;;;13.63;8.93;;;1.10;96.30;;;;;;6376601;27;20023;-76
2021/01/18 01:33:10;;;;;;;11.23;8.32;;;1.20;96.30;;;;;;6376136;27;20027;-76
2021/01/18 01:36:10;;;;;;;11.27;8.27;;;1.80;96.60;;;;;;6376148;27;20057;-76
2021/01/18 01:39:11;;;;;;;12.93;9.38;;;1.90;96.70;;;;;;6375948;27;20015;-76
2021/01/18 01:42:21;;;;;;;11.88;8.50;;;1.10;96.40;;;;;;6376058;27;20027;-76
2021/01/18 01:45:22;;;;;;;11.73;8.63;;;1.10;96.60;;;;;;6375707;27;20034;-76
2021/01/18 01:48:23;;;;;;;13.73;8.95;;;1.20;96.40;;;;;;6375969;27;20051;-76
2021/01/18 01:51:24;;;;;;;12.95;7.95;;;2.60;97.00;;;;;;6375630;27;20019;-76
2021/01/18 01:54:25;;;;;;;13.00;8.90;;;1.20;99.90;;;;;;6375786;27;20019;-76
2021/01/18 01:57:25;;;;;;;9.98;7.57;;;1.10;96.40;;;;;;6340208;27;20453;-76
2021/01/18 02:00:36;;;;;;;11.93;8.48;;;1.30;96.60;;;;;;6357048;27;20362;-76
2021/01/18 02:03:41;;;;;;;13.05;8.45;;;1.10;96.30;;;;;;6375202;27;20023;-76
2021/01/18 02:06:41;;;;;;;11.40;8.05;;;2.20;96.70;;;;;;6375347;27;20019;-76
2021/01/18 02:09:42;;;;;;;12.50;8.38;;;1.20;99.90;;;;;;6375161;27;20046;-76
2021/01/18 02:12:43;;;;;;;13.75;7.93;;;1.20;96.20;;;;;;6375268;27;20038;-76
2021/01/18 02:15:52;;;;;;;12.20;7.55;;;2.50;96.50;;;;;;6375322;27;20023;-76
2021/01/18 02:19:23;;;;;;;12.07;7.88;;;1.30;96.00;;;;;;6356523;27;20042;-76
2021/01/18 02:22:42;;;;;;;11.65;8.25;;;1.40;95.90;;;;;;6356622;27;20100;-75
2021/01/18 02:25:48;;;;;;;11.23;7.53;;;2.40;96.40;;;;;;6374679;27;20042;-76
2021/01/18 02:29:20;;;;;;;9.25;7.70;;;1.60;95.70;;;;;;6374816;27;20430;-76
2021/01/18 02:32:48;;;;;;;10.43;7.28;;;1.30;95.70;;;;;;6317666;27;20035;-76
2021/01/18 02:36:26;;;;;;;11.15;7.50;;;1.30;95.80;;;;;;6358999;27;20026;-76
2021/01/18 02:40:11;;;;;;;11.88;7.45;;;1.30;95.80;;;;;;6374511;27;20048;-77
2021/01/18 02:43:14;;;;;;;15.38;8.48;;;1.40;95.90;;;;;;6255305;27;20029;-76
2021/01/18 02:46:15;;;;;;;14.18;8.13;;;2.70;96.60;;;;;;6339130;27;20666;-75
2021/01/18 02:49:16;;;;;;;11.07;7.60;;;1.50;96.10;;;;;;6339198;27;20034;-77
2021/01/18 02:52:17;;;;;;;9.85;7.47;;;2.50;96.50;;;;;;6374023;27;20043;-76
2021/01/18 02:55:17;;;;;;;10.70;6.97;;;2.70;96.40;;;;;;6374230;27;20018;-76
2021/01/18 02:58:19;;;;;;;13.45;8.10;;;1.70;96.40;;;;;;6373946;27;20020;-76
2021/01/18 03:01:41;;;;;;;12.35;7.70;;;1.30;99.90;;;;;;6338931;27;20072;-76
2021/01/18 03:05:11;;;;;;;10.88;7.75;;;1.20;96.00;;;;;;6373784;27;20099;-76
2021/01/18 03:08:16;;;;;;;12.30;7.53;;;1.20;96.00;;;;;;6358336;27;20072;-76
2021/01/18 03:11:31;;;;;;;11.73;7.78;;;1.30;99.90;;;;;;6338713;27;20031;-76
2021/01/18 03:14:43;;;;;;;15.75;9.63;;;2.00;99.90;;;;;;6357273;27;20015;-76
2021/01/18 03:17:43;;;;;;;17.52;9.27;;;1.30;96.50;;;;;;6338585;27;20066;-76
2021/01/18 03:20:45;;;;;;;15.75;9.40;;;1.50;96.60;;;;;;6338343;27;20027;-76
2021/01/18 03:23:45;;;;;;;14.25;9.30;;;1.20;96.60;;;;;;6373312;27;20019;-77
2021/01/18 03:26:46;;;;;;;14.05;8.98;;;1.10;99.90;;;;;;6355128;27;20019;-76
2021/01/18 03:29:49;;;;;;;15.10;9.55;;;2.20;99.90;;;;;;6354890;27;20019;-76
2021/01/18 03:32:51;;;;;;;17.40;10.85;;;1.80;96.70;;;;;;6373402;27;20038;-75
2021/01/18 03:35:52;;;;;;;13.35;8.55;;;2.60;96.70;;;;;;6372667;27;20015;-76
2021/01/18 03:38:53;;;;;;;10.60;8.35;;;2.50;97.00;;;;;;6373106;27;20019;-76
2021/01/18 03:41:53;;;;;;;13.60;8.55;;;1.10;96.40;;;;;;6372969;27;20068;-76
2021/01/18 03:44:54;;;;;;;17.20;10.50;;;1.30;99.90;;;;;;6373310;27;20342;-76
2021/01/18 03:47:54;;;;;;;13.80;7.80;;;2.70;96.80;;;;;;6373089;27;20011;-76
2021/01/18 03:50:55;;;;;;;12.55;7.85;;;1.30;96.40;;;;;;6372741;27;20035;-76
2021/01/18 03:53:56;;;;;;;12.40;7.97;;;1.30;96.60;;;;;;6373115;27;20106;-77
2021/01/18 03:56:57;;;;;;;12.02;7.75;;;1.10;96.40;;;;;;6372882;27;20046;-76
2021/01/18 03:59:58;;;;;;;11.57;8.40;;;2.10;96.80;;;;;;6372947;27;20027;-77
2021/01/18 04:02:58;;;;;;;10.10;7.30;;;1.10;99.90;;;;;;6372664;27;20025;-76
2021/01/18 04:05:59;;;;;;;11.50;8.07;;;2.30;96.60;;;;;;6354093;28;20381;-76
2021/01/18 04:09:00;;;;;;;11.82;7.53;;;1.10;96.70;;;;;;6372453;27;20795;-76
2021/01/18 04:12:03;;;;;;;12.85;7.47;;;1.90;96.60;;;;;;6354116;28;20461;-76
2021/01/18 04:15:05;;;;;;;15.70;8.32;;;1.10;96.50;;;;;;6372636;27;20084;-76
2021/01/18 04:18:05;;;;;;;13.43;7.72;;;0.90;99.90;;;;;;6372533;27;20084;-76
2021/01/18 04:21:06;;;;;;;11.40;8.52;;;1.40;99.90;;;;;;6372663;27;20031;-76
2021/01/18 04:24:07;;;;;;;11.23;8.32;;;2.30;96.70;;;;;;6372447;28;20020;-76
2021/01/18 04:27:08;;;;;;;15.32;8.07;;;1.10;96.40;;;;;;6372578;28;20031;-76
2021/01/18 04:30:09;;;;;;;11.88;8.15;;;2.00;96.80;;;;;;6372274;27;20030;-77
2021/01/18 04:33:10;;;;;;;13.73;8.40;;;1.10;96.40;;;;;;6372490;27;20035;-76
2021/01/18 04:36:10;;;;;;;12.88;8.73;;;1.10;96.50;;;;;;6372243;28;20072;-76
2021/01/18 04:39:11;;;;;;;14.50;8.90;;;2.30;96.80;;;;;;6372519;28;20023;-76
2021/01/18 04:42:11;;;;;;;18.20;8.60;;;2.00;96.60;;;;;;6372182;28;20027;-77
2021/01/18 04:45:13;;;;;;;13.05;8.90;;;2.60;97.10;;;;;;6354117;28;20020;-76
2021/01/18 04:48:14;;;;;;;15.75;8.93;;;1.10;96.40;;;;;;6355855;27;20065;-75
2021/01/18 04:51:15;;;;;;;15.30;9.88;;;2.00;96.80;;;;;;6376873;27;20047;-77
2021/01/18 04:54:17;;;;;;;12.40;9.75;;;0.90;99.90;;;;;;6377259;27;20402;-76
2021/01/18 04:57:24;;;;;;;15.52;10.73;;;0.90;96.30;;;;;;6376861;27;20011;-76
2021/01/18 05:00:30;;;;;;;17.70;9.52;;;1.30;96.50;;;;;;6341993;27;20031;-76
2021/01/18 05:03:36;;;;;;;12.45;8.95;;;1.90;96.60;;;;;;6376614;27;20011;-76
2021/01/18 05:06:45;;;;;;;13.32;8.38;;;1.00;96.30;;;;;;6377004;27;20027;-76
2021/01/18 05:09:54;;;;;;;16.45;9.10;;;0.80;99.90;;;;;;6376452;27;20019;-76
2021/01/18 05:12:57;;;;;;;15.65;9.52;;;1.60;96.70;;;;;;6376811;27;20102;-75
2021/01/18 05:15:59;;;;;;;15.70;10.38;;;1.00;96.90;;;;;;6376483;27;20015;-76
2021/01/18 05:19:08;;;;;;;16.00;10.43;;;1.40;96.90;;;;;;6376279;27;20027;-75
2021/01/18 05:22:09;;;;;;;17.75;10.43;;;1.00;96.70;;;;;;6359019;27;20500;-76
2021/01/18 05:25:10;;;;;;;17.85;11.68;;;1.20;99.90;;;;;;6357909;27;20023;-75
2021/01/18 05:28:11;;;;;;;14.10;9.52;;;1.00;96.70;;;;;;6376304;27;20084;-76
2021/01/18 05:31:32;;;;;;;17.15;9.88;;;1.60;97.30;;;;;;6376324;27;20063;-76
2021/01/18 05:34:33;;;;;;;18.58;11.05;;;0.90;96.60;;;;;;6376639;27;20069;-76
2021/01/18 05:37:34;;;;;;;20.15;12.77;;;2.30;97.30;;;;;;6376327;27;20023;-76
2021/01/18 05:40:35;;;;;;;19.05;10.30;;;1.20;99.90;;;;;;6357826;27;20102;-76
2021/01/18 05:43:35;;;;;;;20.45;11.98;;;1.10;96.60;;;;;;6376394;27;20414;-76
2021/01/18 05:46:37;;;;;;;14.32;10.30;;;1.10;96.90;;;;;;6357732;27;20038;-76
2021/01/18 05:49:48;;;;;;;15.83;9.83;;;1.40;96.60;;;;;;6376372;27;20520;-76
2021/01/18 05:52:49;;;;;;;15.07;8.50;;;1.60;96.80;;;;;;6376025;27;20484;-76
2021/01/18 05:55:49;;;;;;;13.50;7.35;;;1.20;99.90;;;;;;6375847;27;20023;-76
2021/01/18 05:58:50;;;;;;;12.90;8.85;;;2.10;99.90;;;;;;6357072;27;20028;-76
2021/01/18 06:01:52;;;;;;;30.23;15.93;;;2.60;96.90;;;;;;6340451;27;20019;-76
2021/01/18 06:04:52;;;;;;;25.83;13.23;;;2.60;96.50;;;;;;6375515;27;20073;-75
2021/01/18 06:07:53;;;;;;;28.35;15.00;;;2.70;96.80;;;;;;6340229;27;20043;-76
2021/01/18 06:10:55;;;;;;;31.92;16.30;;;1.00;96.10;;;;;;6375675;27;20034;-75
2021/01/18 06:14:00;;;;;;;18.88;11.80;;;1.90;96.60;;;;;;6375475;27;20472;-76
2021/01/18 06:17:00;;;;;;;32.70;15.77;;;1.80;96.70;;;;;;6375389;27;20024;-76
2021/01/18 06:20:01;;;;;;;13.07;9.57;;;1.10;96.50;;;;;;6340018;27;20027;-76
2021/01/18 06:23:02;;;;;;;17.90;9.98;;;1.10;96.60;;;;;;6356960;27;20541;-76
2021/01/18 06:26:03;;;;;;;15.55;11.10;;;1.20;96.50;;;;;;6375276;27;20011;-75
2021/01/18 06:29:03;;;;;;;30.77;16.65;;;1.60;96.80;;;;;;6375026;27;20025;-75
2021/01/18 06:32:05;;;;;;;45.20;21.60;;;0.90;99.90;;;;;;6375067;27;20035;-75
2021/01/18 06:35:06;;;;;;;34.30;17.63;;;1.10;96.00;;;;;;6374896;27;20353;-76
2021/01/18 06:38:07;;;;;;;41.05;19.85;;;1.10;96.30;;;;;;6374680;27;20472;-76
2021/01/18 06:41:08;;;;;;;16.85;10.98;;;2.60;96.50;;;;;;6374714;27;20023;-76
2021/01/18 06:44:09;;;;;;;28.05;15.15;;;1.70;96.50;;;;;;6374654;27;20028;-76
2021/01/18 06:47:27;;;;;;;49.28;24.85;;;1.10;99.90;;;;;;6374619;27;20066;-76
2021/01/18 06:50:35;;;;;;;18.52;10.63;;;2.50;96.40;;;;;;6374517;27;20035;-76
2021/01/18 06:53:36;;;;;;;15.18;9.98;;;2.30;96.60;;;;;;6374315;27;20023;-75
2021/01/18 06:57:28;;;;;;;15.00;10.10;;;1.00;96.10;;;;;;6339340;27;20038;-76
2021/01/18 07:00:29;;;;;;;13.52;10.52;;;1.10;96.00;;;;;;6243647;27;20059;-77
2021/01/18 07:03:41;;;;;;;15.15;10.32;;;2.00;96.50;;;;;;6374367;27;20092;-75
2021/01/18 07:06:42;;;;;;;15.98;10.73;;;1.10;96.10;;;;;;6374124;27;20039;-76
2021/01/18 07:09:43;;;;;;;20.30;13.15;;;1.20;96.50;;;;;;6373726;27;20028;-76
2021/01/18 07:12:43;;;;;;;24.48;13.57;;;1.10;99.90;;;;;;6338073;27;20434;-76
2021/01/18 07:15:44;;;;;;;13.05;8.88;;;2.20;99.90;;;;;;6355775;27;20023;-76
2021/01/18 07:18:54;;;;;;;12.23;8.43;;;2.30;96.70;;;;;;6373882;27;20098;-76
2021/01/18 07:22:04;;;;;;;16.25;9.38;;;1.10;96.00;;;;;;6357171;27;20030;-75
2021/01/18 07:25:05;;;;;;;20.55;12.40;;;1.30;96.40;;;;;;6339337;27;20061;-76
2021/01/18 07:28:06;;;;;;;17.58;11.02;;;1.40;99.90;;;;;;6373793;27;20023;-76
2021/01/18 07:31:07;;;;;;;18.58;11.70;;;1.30;99.90;;;;;;6373339;27;20338;-76
2021/01/18 07:34:09;;;;;;;19.42;11.95;;;1.50;96.60;;;;;;6355059;27;20068;-76
2021/01/18 07:37:10;;;;;;;13.02;10.25;;;1.20;96.30;;;;;;6338359;27;20028;-75
2021/01/18 07:40:12;;;;;;;16.10;11.45;;;1.80;96.70;;;;;;6374040;27;20372;-75
2021/01/18 07:43:12;;;;;;;21.67;11.30;;;1.20;96.20;;;;;;6373414;27;20075;-76
2021/01/18 07:46:25;;;;;;;15.23;11.93;;;1.30;96.40;;;;;;6337724;27;20024;-75
2021/01/18 07:49:29;;;;;;;;;;;1.30;96.50;;;;;;6373826;27;20243;-76
2021/01/18 07:52:30;;;;;;;13.90;10.60;;;1.20;96.10;;;;;;6373035;27;19922;-76
2021/01/18 07:55:30;;;;;;;16.45;10.85;;;1.30;96.40;;;;;;6373220;27;20031;-75
2021/01/18 07:58:31;;;;;;;11.93;9.43;;;1.20;96.20;;;;;;6373078;27;20481;-77
2021/01/18 08:01:37;;;;;;;15.23;9.60;;;1.60;96.40;;;;;;6354775;27;20016;-76
2021/01/18 08:04:39;;;;;;;13.80;10.13;;;1.10;99.90;;;;;;6372944;27;20035;-76
2021/01/18 08:08:04;;;;;;;13.57;9.88;;;1.20;95.90;;;;;;6372970;27;20027;-76
2021/01/18 08:11:15;;;;;;;12.85;10.15;;;1.50;95.80;;;;;;6372769;28;20066;-75
2021/01/18 08:14:16;;;;;;;12.45;9.95;;;1.50;95.80;;;;;;6373044;27;20057;-77
2021/01/18 08:17:17;;;;;;;13.43;8.68;;;1.70;95.80;;;;;;6372747;27;20387;-75
2021/01/18 08:20:21;;;;;;;16.65;11.18;;;1.50;95.70;;;;;;6372966;27;20100;-75
2021/01/18 08:23:48;;;;;;;19.85;12.00;;;1.50;95.50;;;;;;6376483;27;20027;-76
2021/01/18 08:27:04;;;;;;;27.00;16.45;;;2.80;95.90;;;;;;6373438;27;20035;-77
2021/01/18 08:30:21;;;;;;;19.33;13.45;;;1.50;99.90;;;;;;6377632;27;20020;-75
2021/01/18 08:33:25;;;;;;;18.50;11.18;;;1.50;95.20;;;;;;6377865;27;20030;-76
2021/01/18 08:36:31;;;;;;;20.13;13.50;;;2.80;95.70;;;;;;6342816;27;20023;-77
2021/01/18 08:39:32;;;;;;;16.10;10.45;;;1.50;95.20;;;;;;6377634;27;20031;-77
2021/01/18 08:42:37;;;;;;;15.43;9.77;;;2.20;95.20;;;;;;6342282;27;20059;-76
2021/01/18 08:45:41;;;;;;;14.80;9.55;;;2.10;99.90;;;;;;6377632;27;20034;-75
2021/01/18 08:48:42;;;;;;;15.43;9.85;;;1.80;94.50;;;;;;6377435;27;20100;-76
2021/01/18 08:51:46;;;;;;;12.32;8.88;;;3.40;95.20;;;;;;6377490;27;20082;-75
2021/01/18 08:54:47;;;;;;;15.68;9.82;;;2.70;94.50;;;;;;6377358;27;20460;-76
2021/01/18 08:57:52;;;;;;;14.35;9.10;;;2.60;94.70;;;;;;6377450;27;20090;-76
2021/01/18 09:00:53;;;;;;;13.55;7.70;;;2.20;99.90;;;;;;6359610;27;20108;-76
2021/01/18 09:04:05;;;;;;;14.02;8.75;;;3.20;94.40;;;;;;6341569;27;20051;-76
2021/01/18 09:07:06;;;;;;;10.67;6.50;;;2.30;99.90;;;;;;6376862;27;20374;-76
2021/01/18 09:10:12;;;;;;;13.48;7.90;;;2.30;93.50;;;;;;6358391;27;20272;-75
2021/01/18 09:13:12;;;;;;;13.45;10.70;;;3.00;93.60;;;;;;6376971;27;20075;-76
2021/01/18 09:16:13;;;;;;;14.32;8.30;;;2.40;99.90;;;;;;6358427;27;20445;-75
2021/01/18 09:19:14;;;;;;;14.35;12.02;;;3.20;98.40;;;;;;6376542;27;20027;-75
2021/01/18 09:22:14;;;;;;;17.45;10.18;;;2.70;92.70;;;;;;6376472;27;20034;-76
2021/01/18 09:25:15;;;;;;;14.98;9.65;;;2.90;92.60;;;;;;6341288;27;20022;-74
2021/01/18 09:28:16;;;;;;;12.63;7.80;;;2.90;91.90;;;;;;6376440;27;20383;-76
2021/01/18 09:31:17;;;;;;;10.05;6.50;;;3.00;91.90;;;;;;6357884;27;20039;-75
2021/01/18 09:34:17;;;;;;;13.05;8.57;;;3.50;91.90;;;;;;6375536;27;20037;-76
2021/01/18 09:37:21;;;;;;;10.25;6.93;;;3.80;91.50;;;;;;6376513;27;20015;-76
2021/01/18 09:40:21;;;;;;;10.43;7.13;;;3.40;90.30;;;;;;6357982;27;20437;-75
2021/01/18 09:43:22;;;;;;;9.77;7.03;;;3.50;90.60;;;;;;6358065;27;20027;-76
2021/01/18 09:46:28;;;;;;;13.10;7.70;;;3.30;90.60;;;;;;6377545;27;20478;-76
2021/01/18 09:49:28;;;;;;;9.77;6.80;;;3.40;91.60;;;;;;6342165;27;20031;-75
2021/01/18 09:52:29;;;;;;;9.60;6.60;;;3.20;99.90;;;;;;6375970;27;20046;-76
2021/01/18 09:55:45;;;;;;;10.25;6.68;;;3.60;90.60;;;;;;6375897;27;20027;-76
2021/01/18 09:58:50;;;;;;;10.23;6.40;;;3.30;90.40;;;;;;6359454;27;20019;-76
2021/01/18 10:01:51;;;;;;;11.15;6.43;;;3.50;90.00;;;;;;6357747;27;20022;-75
2021/01/18 10:04:52;;;;;;;11.48;6.88;;;3.50;90.10;;;;;;6357081;27;20047;-76
2021/01/18 10:07:53;;;;;;;8.68;6.72;;;3.50;96.90;;;;;;6357042;27;20677;-76
2021/01/18 10:10:53;;;;;;;7.68;5.85;;;3.60;90.20;;;;;;6375495;27;20111;-76
2021/01/18 10:14:01;;;;;;;12.23;6.53;;;3.60;90.00;;;;;;6375346;27;20023;-76
2021/01/18 10:17:09;;;;;;;16.02;6.88;;;3.70;90.10;;;;;;6375567;27;20023;-76
2021/01/18 10:20:12;;;;;;;9.25;6.38;;;3.70;89.90;;;;;;6375198;27;20095;-76
2021/01/18 10:23:15;;;;;;;10.57;6.50;;;3.40;99.90;;;;;;6375351;27;20080;-76
2021/01/18 10:26:21;;;;;;;8.88;6.15;;;3.80;89.70;;;;;;6356795;27;20488;-76
2021/01/18 10:29:23;;;;;;;10.55;6.50;;;3.60;89.20;;;;;;6375179;27;20111;-76
2021/01/18 10:32:36;;;;;;;7.37;6.13;;;3.70;89.30;;;;;;6374839;27;20039;-76
2021/01/18 10:35:37;;;;;;;10.10;6.95;;;4.20;89.00;;;;;;6358905;27;20053;-77
2021/01/18 10:38:38;;;;;;;16.77;8.77;;;3.60;99.90;;;;;;6356540;27;20464;-76
2021/01/18 10:41:39;;;;;;;14.63;8.57;;;3.80;88.10;;;;;;6356799;27;20022;-76
2021/01/18 10:44:47;;;;;;;9.18;8.13;;;3.80;88.70;;;;;;6339434;27;20098;-76
2021/01/18 10:47:55;;;;;;;11.55;7.32;;;3.90;88.80;;;;;;6374636;27;20047;-76
2021/01/18 10:50:57;;;;;;;11.77;6.32;;;4.00;89.40;;;;;;6374314;27;20375;-76
2021/01/18 10:54:01;;;;;;;11.27;6.07;;;3.80;95.50;;;;;;6374675;27;20019;-76
2021/01/18 10:57:02;;;;;;;7.38;5.35;;;4.00;88.40;;;;;;6374372;27;20425;-76
2021/01/18 11:00:40;;;;;;;7.95;6.53;;;4.10;88.30;;;;;;6374273;27;20015;-76
2021/01/18 11:03:41;;;;;;;9.65;6.75;;;4.10;88.00;;;;;;6321604;27;20026;-77
2021/01/18 11:06:41;;;;;;;8.90;6.50;;;4.60;88.60;;;;;;6339116;27;20025;-76
2021/01/18 11:09:42;;;;;;;8.35;6.55;;;4.00;88.80;;;;;;6338408;27;20450;-76
2021/01/18 11:12:43;;;;;;;8.52;5.90;;;4.20;88.50;;;;;;6374122;27;20053;-75
2021/01/18 11:15:44;;;;;;;13.07;9.63;;;4.20;84.30;;;;;;6374144;27;20417;-76
2021/01/18 11:18:45;;;;;;;8.68;6.82;;;4.20;85.60;;;;;;6373887;27;20354;-76
2021/01/18 11:21:45;;;;;;;10.35;6.93;;;4.70;83.60;;;;;;6373903;27;20070;-77
2021/01/18 11:24:47;;;;;;;8.80;7.28;;;4.30;96.00;;;;;;6373689;27;20047;-76
2021/01/18 11:27:47;;;;;;;14.68;7.97;;;4.30;87.10;;;;;;6373791;27;20054;-76
2021/01/18 11:30:48;;;;;;;15.30;6.32;;;5.00;85.00;;;;;;6373450;27;20042;-76
2021/01/18 11:33:48;;;;;;;13.10;7.28;;;4.60;84.10;;;;;;6373539;27;20053;-76
2021/01/18 11:36:49;;;;;;;9.57;6.47;;;4.50;84.50;;;;;;6373454;27;20019;-77
2021/01/18 11:39:50;;;;;;;8.05;5.78;;;4.50;85.90;;;;;;6373232;27;20023;-77
2021/01/18 11:42:50;;;;;;;8.30;5.97;;;4.50;85.70;;;;;;6373539;27;20406;-76
2021/01/18 11:45:51;;;;;;;8.88;6.78;;;4.50;86.00;;;;;;6373169;27;20098;-76
2021/01/18 11:48:51;;;;;;;14.38;6.68;;;4.80;85.40;;;;;;6373512;27;20460;-75
2021/01/18 11:51:54;;;;;;;11.27;7.05;;;4.40;85.70;;;;;;6373090;27;20043;-76
2021/01/18 11:54:55;;;;;;;11.85;6.88;;;4.30;85.40;;;;;;6373295;27;20097;-76
2021/01/18 11:57:56;;;;;;;13.25;7.97;;;4.50;85.50;;;;;;6354356;27;20053;-75
2021/01/18 12:00:57;;;;;;;9.93;7.38;;;4.40;99.90;;;;;;6373167;27;20678;-77
2021/01/18 12:03:57;;;;;;;9.23;8.00;;;4.60;85.60;;;;;;6372816;27;20096;-76
2021/01/18 12:06:58;;;;;;;8.57;6.50;;;4.60;85.20;;;;;;6373219;27;20023;-77
2021/01/18 12:09:59;;;;;;;8.32;5.88;;;4.80;85.30;;;;;;6372818;27;20051;-76
2021/01/18 12:13:00;;;;;;;6.28;4.63;;;4.50;83.00;;;;;;6372720;27;20453;-76
2021/01/18 12:16:01;;;;;;;7.60;5.25;;;4.60;99.00;;;;;;6373025;28;20020;-76
2021/01/18 12:19:01;;;;;;;6.95;5.13;;;4.90;91.80;;;;;;6372766;27;20019;-76
2021/01/18 12:22:02;;;;;;;6.72;4.40;;;4.60;83.30;;;;;;6373148;28;20106;-77
2021/01/18 12:25:05;;;;;;;6.65;4.97;;;4.70;80.50;;;;;;6372747;28;20019;-75
2021/01/18 12:28:06;;;;;;;5.65;4.68;;;4.80;81.90;;;;;;6372765;28;20019;-76
2021/01/18 12:31:06;;;;;;;7.53;4.97;;;4.80;81.30;;;;;;6372531;28;20114;-76
2021/01/18 12:34:07;;;;;;;9.73;5.40;;;5.00;80.30;;;;;;6372839;28;20019;-76
2021/01/18 12:37:08;;;;;;;9.23;6.82;;;4.80;80.20;;;;;;6372730;27;20034;-76
2021/01/18 12:40:09;;;;;;;8.73;5.45;;;4.70;81.30;;;;;;6372483;28;20024;-76
2021/01/18 12:43:10;;;;;;;8.68;4.97;;;4.70;81.50;;;;;;6372686;28;20019;-77
2021/01/18 12:46:10;;;;;;;7.57;5.15;;;4.70;81.70;;;;;;6372403;27;20021;-76
2021/01/18 12:49:11;;;;;;;50.20;31.60;;;4.70;82.10;;;;;;6372591;28;20079;-76
2021/01/18 12:52:11;;;;;;;33.22;26.63;;;4.60;97.80;;;;;;6372408;27;20042;-76
2021/01/18 12:55:12;;;;;;;9.85;8.85;;;5.40;90.70;;;;;;6372407;28;20078;-76
2021/01/18 12:58:12;;;;;;;10.10;8.32;;;5.10;79.90;;;;;;6372415;27;20052;-76
2021/01/18 13:01:33;;;;;;;7.88;4.05;;;5.00;78.90;;;;;;6373505;28;20030;-77
2021/01/18 13:04:33;;;;;;;9.80;5.03;;;5.00;78.50;;;;;;6376097;27;20042;-76
2021/01/18 13:07:34;;;;;;;10.85;8.88;;;4.70;97.90;;;;;;6372438;27;20123;-76
2021/01/18 13:10:34;;;;;;;9.77;8.20;;;5.20;90.70;;;;;;6375966;27;20030;-77
2021/01/18 13:13:35;;;;;;;6.93;5.55;;;4.90;79.70;;;;;;6377142;27;20019;-76
2021/01/18 13:16:36;;;;;;;4.93;3.25;;;5.10;79.10;;;;;;6377323;27;20035;-76
2021/01/18 13:19:36;;;;;;;14.38;5.97;;;4.90;79.50;;;;;;6376714;27;20102;-77
2021/01/18 13:22:38;;;;;;;7.43;3.22;;;5.00;81.80;;;;;;6376899;27;20021;-77
2021/01/18 13:25:39;;;;;;;8.88;3.30;;;5.20;77.90;;;;;;6376476;27;20361;-77
2021/01/18 13:28:43;;;;;;;5.70;3.10;;;4.90;76.40;;;;;;6376737;27;20024;-76
2021/01/18 13:31:44;;;;;;;6.05;3.03;;;5.10;76.00;;;;;;6376252;27;20126;-76
2021/01/18 13:34:44;;;;;;;4.07;3.33;;;4.90;76.80;;;;;;6376662;27;20464;-76
2021/01/18 13:37:45;;;;;;;3.13;2.55;;;5.10;76.30;;;;;;6376475;27;20019;-76
2021/01/18 13:40:45;;;;;;;4.32;2.90;;;4.80;76.80;;;;;;6376531;27;20685;-76
2021/01/18 13:43:46;;;;;;;7.65;4.40;;;5.00;96.50;;;;;;6376352;27;20038;-76
2021/01/18 13:46:47;;;;;;;4.78;3.58;;;4.90;77.50;;;;;;6376166;27;20449;-76
2021/01/18 13:49:47;;;;;;;5.90;3.55;;;4.80;76.90;;;;;;6376468;27;20045;-76
2021/01/18 13:52:48;;;;;;;5.50;3.10;;;4.80;77.70;;;;;;6375795;27;20050;-76
2021/01/18 13:55:49;;;;;;;8.45;5.13;;;4.80;78.40;;;;;;6376296;27;20023;-76
2021/01/18 13:58:49;;;;;;;5.30;4.10;;;4.90;96.90;;;;;;6375891;27;20034;-76
2021/01/18 14:01:50;;;;;;;5.95;3.47;;;5.30;89.60;;;;;;6376122;27;20024;-76
2021/01/18 14:04:50;;;;;;;10.35;7.03;;;4.70;79.10;;;;;;6375846;27;20046;-76
2021/01/18 14:07:51;;;;;;;7.30;4.70;;;4.60;76.80;;;;;;6375759;27;20026;-76
2021/01/18 14:10:52;;;;;;;4.60;3.33;;;4.60;77.90;;;;;;6375549;27;20042;-75
2021/01/18 14:13:53;;;;;;;3.53;3.05;;;4.80;78.20;;;;;;6375384;27;20023;-76
2021/01/18 14:16:53;;;;;;;5.53;3.58;;;4.90;78.60;;;;;;6375352;27;20027;-76
2021/01/18 14:19:54;;;;;;;6.30;3.58;;;4.30;79.40;;;;;;6374936;27;20030;-76
2021/01/18 14:22:54;;;;;;;4.53;3.00;;;4.20;80.10;;;;;;6375383;27;20062;-76
2021/01/18 14:25:55;;;;;;;6.43;3.35;;;4.20;80.50;;;;;;6375104;27;20075;-76
2021/01/18 14:28:55;;;;;;;4.97;3.67;;;4.60;80.70;;;;;;6375016;27;20025;-76
2021/01/18 14:31:56;;;;;;;5.50;3.20;;;4.10;79.70;;;;;;6374901;27;20027;-76
2021/01/18 14:34:57;;;;;;;4.82;3.42;;;;;;;;;;6374928;27;20026;-76
2021/01/18 14:37:58;;;;;;;7.80;5.38;;;4.20;87.10;;;;;;6374830;27;20512;-77
2021/01/18 14:40:58;;;;;;;5.88;3.75;;;4.10;79.40;;;;;;6374800;27;20031;-76
2021/01/18 14:43:59;;;;;;;7.13;3.67;;;4.00;80.70;;;;;;6374421;27;20019;-77
2021/01/18 14:47:00;;;;;;;4.15;2.65;;;4.00;80.30;;;;;;6374367;27;20376;-76
2021/01/18 14:50:01;;;;;;;6.97;3.50;;;3.90;80.10;;;;;;6356170;27;20027;-76
2021/01/18 14:53:01;;;;;;;4.70;3.22;;;4.40;80.70;;;;;;6374343;27;20062;-75
2021/01/18 14:56:02;;;;;;;5.28;3.60;;;4.00;79.90;;;;;;6374645;27;20023;-77
2021/01/18 14:59:05;;;;;;;4.70;3.30;;;3.80;79.20;;;;;;6355942;27;20414;-75
2021/01/18 15:02:06;;;;;;;5.07;3.30;;;4.70;80.10;;;;;;6374378;27;20027;-76
2021/01/18 15:05:08;;;;;;;7.15;4.35;;;3.80;78.50;;;;;;6374089;27;20050;-76
2021/01/18 15:08:08;;;;;;;13.60;8.05;;;3.80;80.10;;;;;;6374474;27;20015;-76
2021/01/18 15:11:13;;;;;;;7.75;5.20;;;3.50;98.10;;;;;;6374000;27;20054;-76
2021/01/18 15:14:14;;;;;;;10.45;5.20;;;3.80;81.90;;;;;;6373836;27;20455;-77
2021/01/18 15:17:14;;;;;;;6.82;4.93;;;3.80;81.70;;;;;;6373876;27;20102;-77
2021/01/18 15:20:15;;;;;;;7.22;5.05;;;3.50;82.40;;;;;;6373792;27;20098;-76
2021/01/18 15:23:16;;;;;;;5.25;3.70;;;3.40;82.00;;;;;;6373878;27;20023;-77
2021/01/18 15:26:17;;;;;;;6.45;5.25;;;3.20;99.30;;;;;;6373648;27;20023;-76
2021/01/18 15:29:17;;;;;;;10.23;7.95;;;3.20;91.90;;;;;;6374085;27;20019;-76
2021/01/18 15:32:18;;;;;;;9.07;5.78;;;3.40;83.30;;;;;;6372975;27;20034;-76
2021/01/18 15:35:22;;;;;;;11.98;5.90;;;3.80;84.30;;;;;;6373992;27;20384;-76
2021/01/18 15:38:23;;;;;;;7.97;4.45;;;2.90;85.20;;;;;;6373645;27;20019;-76
2021/01/18 15:41:27;;;;;;;7.40;4.90;;;2.80;84.40;;;;;;6373637;27;20026;-75
2021/01/18 15:44:28;;;;;;;8.65;5.03;;;2.70;85.80;;;;;;6355574;27;20022;-77
2021/01/18 15:47:32;;;;;;;7.32;4.15;;;2.70;87.10;;;;;;6373389;27;20050;-75
2021/01/18 15:50:33;;;;;;;6.97;3.83;;;2.50;85.90;;;;;;6373451;27;20027;-76
2021/01/18 15:53:33;;;;;;;6.88;4.90;;;3.00;87.10;;;;;;6373317;27;20076;-77
2021/01/18 15:56:35;;;;;;;8.93;6.20;;;2.40;88.80;;;;;;6373302;27;20027;-76